sensor_id;sensor_type;location;lat;lon;timestamp;P1;durP1;ratioP1;P2;durP2;ratioP2
20857;SDS011;10589;53.636;10.012;2023-08-06T03:46:06;5.10;;;4.43;;
20857;SDS011;10589;53.636;10.012;2023-08-06T03:48:32;5.47;;;4.73;;
20857;SDS011;10589;53.636;10.012;2023-08-06T03:50:58;5.90;;;4.17;;
20857;SDS011;10589;53.636;10.012;2023-08-06T03:53:25;8.13;;;4.97;;
20857;SDS011;10589;53.636;10.012;2023-08-06T03:55:51;6.30;;;5.00;;
20857;SDS011;10589;53.636;10.012;2023-08-06T03:58:17;7.20;;;4.60;;
20857;SDS011;10589;53.636;10.012;2023-08-06T04:00:42;5.67;;;4.30;;
20857;SDS011;10589;53.636;10.012;2023-08-06T04:03:08;8.17;;;4.50;;
20857;SDS011;10589;53.636;10.012;2023-08-06T04:05:33;6.23;;;4.27;;
20857;SDS011;10589;53.636;10.012;2023-08-06T04:07:59;5.90;;;4.63;;
20857;SDS011;10589;53.636;10.012;2023-08-06T04:10:24;4.73;;;4.23;;
20857;SDS011;10589;53.636;10.012;2023-08-06T04:12:50;5.80;;;4.90;;
20857;SDS011;10589;53.636;10.012;2023-08-06T04:15:16;5.80;;;4.73;;
20857;SDS011;10589;53.636;10.012;2023-08-06T04:17:41;9.23;;;4.63;;
20857;SDS011;10589;53.636;10.012;2023-08-06T04:20:07;7.67;;;4.60;;
20857;SDS011;10589;53.636;10.012;2023-08-06T04:22:33;5.20;;;4.20;;
20857;SDS011;10589;53.636;10.012;2023-08-06T04:24:58;6.47;;;4.13;;
20857;SDS011;10589;53.636;10.012;2023-08-06T04:27:24;6.93;;;4.33;;
20857;SDS011;10589;53.636;10.012;2023-08-06T04:29:50;4.57;;;3.93;;
20857;SDS011;10589;53.636;10.012;2023-08-06T04:32:15;6.20;;;4.20;;
20857;SDS011;10589;53.636;10.012;2023-08-06T04:34:42;6.27;;;4.30;;
20857;SDS011;10589;53.636;10.012;2023-08-06T04:37:08;8.00;;;4.50;;
20857;SDS011;10589;53.636;10.012;2023-08-06T04:39:34;6.03;;;4.43;;
20857;SDS011;10589;53.636;10.012;2023-08-06T04:41:59;9.67;;;4.83;;
20857;SDS011;10589;53.636;10.012;2023-08-06T04:44:25;8.33;;;4.23;;
20857;SDS011;10589;53.636;10.012;2023-08-06T04:46:50;7.77;;;4.80;;
20857;SDS011;10589;53.636;10.012;2023-08-06T04:49:17;9.03;;;4.90;;
20857;SDS011;10589;53.636;10.012;2023-08-06T04:51:45;12.57;;;4.70;;
20857;SDS011;10589;53.636;10.012;2023-08-06T04:54:10;5.30;;;4.30;;
20857;SDS011;10589;53.636;10.012;2023-08-06T04:56:36;5.93;;;4.53;;
20857;SDS011;10589;53.636;10.012;2023-08-06T04:59:01;11.30;;;5.00;;
20857;SDS011;10589;53.636;10.012;2023-08-06T05:01:27;7.73;;;5.37;;
20857;SDS011;10589;53.636;10.012;2023-08-06T05:03:53;11.20;;;5.67;;
20857;SDS011;10589;53.636;10.012;2023-08-06T05:06:19;7.10;;;5.10;;
20857;SDS011;10589;53.636;10.012;2023-08-06T05:08:44;9.83;;;5.50;;
20857;SDS011;10589;53.636;10.012;2023-08-06T05:11:10;7.40;;;4.83;;
20857;SDS011;10589;53.636;10.012;2023-08-06T05:13:35;7.83;;;4.73;;
20857;SDS011;10589;53.636;10.012;2023-08-06T05:16:01;9.77;;;5.57;;
20857;SDS011;10589;53.636;10.012;2023-08-06T05:18:27;8.67;;;5.53;;
20857;SDS011;10589;53.636;10.012;2023-08-06T05:20:53;8.97;;;5.73;;
20857;SDS011;10589;53.636;10.012;2023-08-06T05:23:18;7.33;;;4.80;;
20857;SDS011;10589;53.636;10.012;2023-08-06T05:25:44;8.87;;;5.20;;
20857;SDS011;10589;53.636;10.012;2023-08-06T05:28:10;6.77;;;5.13;;
20857;SDS011;10589;53.636;10.012;2023-08-06T05:30:38;5.63;;;4.80;;
20857;SDS011;10589;53.636;10.012;2023-08-06T05:33:05;6.23;;;4.80;;
20857;SDS011;10589;53.636;10.012;2023-08-06T05:35:30;9.63;;;5.30;;
20857;SDS011;10589;53.636;10.012;2023-08-06T05:37:56;6.10;;;4.40;;
20857;SDS011;10589;53.636;10.012;2023-08-06T05:40:21;7.90;;;5.53;;
20857;SDS011;10589;53.636;10.012;2023-08-06T05:42:47;5.03;;;4.53;;
20857;SDS011;10589;53.636;10.012;2023-08-06T05:45:12;7.85;;;5.32;;
20857;SDS011;10589;53.636;10.012;2023-08-06T05:47:38;7.75;;;4.75;;
20857;SDS011;10589;53.636;10.012;2023-08-06T05:50:04;7.10;;;5.18;;
20857;SDS011;10589;53.636;10.012;2023-08-06T05:52:30;5.47;;;4.93;;
20857;SDS011;10589;53.636;10.012;2023-08-06T05:54:56;7.37;;;5.50;;
20857;SDS011;10589;53.636;10.012;2023-08-06T05:57:21;6.60;;;4.93;;
20857;SDS011;10589;53.636;10.012;2023-08-06T05:59:47;5.80;;;4.55;;
20857;SDS011;10589;53.636;10.012;2023-08-06T06:02:12;9.18;;;5.80;;
20857;SDS011;10589;53.636;10.012;2023-08-06T06:04:38;9.93;;;5.50;;
20857;SDS011;10589;53.636;10.012;2023-08-06T06:07:05;7.87;;;5.17;;
20857;SDS011;10589;53.636;10.012;2023-08-06T06:09:31;7.88;;;5.20;;
20857;SDS011;10589;53.636;10.012;2023-08-06T06:11:56;5.38;;;4.85;;
20857;SDS011;10589;53.636;10.012;2023-08-06T06:14:22;11.77;;;5.55;;
20857;SDS011;10589;53.636;10.012;2023-08-06T06:16:48;7.03;;;4.95;;
20857;SDS011;10589;53.636;10.012;2023-08-06T06:19:13;9.13;;;5.45;;
20857;SDS011;10589;53.636;10.012;2023-08-06T06:21:39;9.63;;;5.68;;
20857;SDS011;10589;53.636;10.012;2023-08-06T06:24:05;6.07;;;4.72;;
20857;SDS011;10589;53.636;10.012;2023-08-06T06:26:31;7.05;;;5.28;;
20857;SDS011;10589;53.636;10.012;2023-08-06T06:28:57;9.27;;;4.93;;
20857;SDS011;10589;53.636;10.012;2023-08-06T06:31:23;5.50;;;4.78;;
20857;SDS011;10589;53.636;10.012;2023-08-06T06:33:49;5.15;;;4.65;;
20857;SDS011;10589;53.636;10.012;2023-08-06T06:36:14;10.32;;;6.05;;
20857;SDS011;10589;53.636;10.012;2023-08-06T06:38:40;5.47;;;4.95;;
20857;SDS011;10589;53.636;10.012;2023-08-06T06:41:06;9.45;;;4.90;;
20857;SDS011;10589;53.636;10.012;2023-08-06T06:43:31;9.25;;;5.30;;
20857;SDS011;10589;53.636;10.012;2023-08-06T06:45:57;8.70;;;5.78;;
20857;SDS011;10589;53.636;10.012;2023-08-06T06:48:28;7.60;;;5.47;;
20857;SDS011;10589;53.636;10.012;2023-08-06T06:50:54;8.18;;;5.35;;
20857;SDS011;10589;53.636;10.012;2023-08-06T06:53:20;6.60;;;5.28;;
20857;SDS011;10589;53.636;10.012;2023-08-06T06:55:48;9.63;;;5.78;;
20857;SDS011;10589;53.636;10.012;2023-08-06T06:58:14;9.43;;;5.28;;
20857;SDS011;10589;53.636;10.012;2023-08-06T07:00:41;8.75;;;5.35;;
20857;SDS011;10589;53.636;10.012;2023-08-06T07:03:06;8.40;;;5.35;;
20857;SDS011;10589;53.636;10.012;2023-08-06T07:05:32;9.90;;;5.82;;
20857;SDS011;10589;53.636;10.012;2023-08-06T07:07:58;6.15;;;5.50;;
20857;SDS011;10589;53.636;10.012;2023-08-06T07:10:23;8.02;;;5.70;;
20857;SDS011;10589;53.636;10.012;2023-08-06T07:12:49;11.48;;;6.28;;
20857;SDS011;10589;53.636;10.012;2023-08-06T07:15:14;7.97;;;5.28;;
20857;SDS011;10589;53.636;10.012;2023-08-06T07:17:42;7.78;;;4.82;;
20857;SDS011;10589;53.636;10.012;2023-08-06T07:20:08;9.55;;;5.65;;
20857;SDS011;10589;53.636;10.012;2023-08-06T07:22:34;9.35;;;5.43;;
20857;SDS011;10589;53.636;10.012;2023-08-06T07:24:59;6.38;;;5.43;;
20857;SDS011;10589;53.636;10.012;2023-08-06T07:27:25;11.48;;;5.88;;
20857;SDS011;10589;53.636;10.012;2023-08-06T07:29:50;8.60;;;5.45;;
20857;SDS011;10589;53.636;10.012;2023-08-06T07:32:18;9.93;;;5.28;;
20857;SDS011;10589;53.636;10.012;2023-08-06T07:34:44;9.52;;;5.60;;
20857;SDS011;10589;53.636;10.012;2023-08-06T07:37:09;7.68;;;5.45;;
20857;SDS011;10589;53.636;10.012;2023-08-06T07:39:35;9.52;;;5.47;;
20857;SDS011;10589;53.636;10.012;2023-08-06T07:42:03;6.47;;;4.65;;
20857;SDS011;10589;53.636;10.012;2023-08-06T07:44:30;9.48;;;5.13;;
20857;SDS011;10589;53.636;10.012;2023-08-06T07:46:56;8.40;;;5.18;;
20857;SDS011;10589;53.636;10.012;2023-08-06T07:49:22;7.78;;;5.05;;
20857;SDS011;10589;53.636;10.012;2023-08-06T07:51:47;8.82;;;5.13;;
20857;SDS011;10589;53.636;10.012;2023-08-06T07:54:13;7.07;;;4.63;;
20857;SDS011;10589;53.636;10.012;2023-08-06T07:56:38;8.25;;;4.57;;
20857;SDS011;10589;53.636;10.012;2023-08-06T07:59:04;7.82;;;5.28;;
20857;SDS011;10589;53.636;10.012;2023-08-06T08:01:29;6.85;;;5.20;;
20857;SDS011;10589;53.636;10.012;2023-08-06T08:03:55;8.40;;;4.68;;
20857;SDS011;10589;53.636;10.012;2023-08-06T08:06:21;10.40;;;6.05;;
20857;SDS011;10589;53.636;10.012;2023-08-06T08:08:48;9.43;;;4.97;;
20857;SDS011;10589;53.636;10.012;2023-08-06T08:11:13;10.07;;;5.40;;
20857;SDS011;10589;53.636;10.012;2023-08-06T08:13:40;10.55;;;4.53;;
20857;SDS011;10589;53.636;10.012;2023-08-06T08:16:06;8.75;;;5.45;;
20857;SDS011;10589;53.636;10.012;2023-08-06T08:18:32;13.15;;;4.60;;
20857;SDS011;10589;53.636;10.012;2023-08-06T08:20:57;8.48;;;5.13;;
20857;SDS011;10589;53.636;10.012;2023-08-06T08:23:23;6.35;;;4.90;;
20857;SDS011;10589;53.636;10.012;2023-08-06T08:25:49;7.60;;;4.45;;
20857;SDS011;10589;53.636;10.012;2023-08-06T08:28:14;7.78;;;4.70;;
20857;SDS011;10589;53.636;10.012;2023-08-06T08:30:40;8.23;;;4.90;;
20857;SDS011;10589;53.636;10.012;2023-08-06T08:33:06;8.02;;;5.10;;
20857;SDS011;10589;53.636;10.012;2023-08-06T08:35:33;7.95;;;5.57;;
20857;SDS011;10589;53.636;10.012;2023-08-06T08:37:58;6.47;;;4.93;;
20857;SDS011;10589;53.636;10.012;2023-08-06T08:40:26;6.93;;;4.65;;
20857;SDS011;10589;53.636;10.012;2023-08-06T08:42:57;8.65;;;5.68;;
20857;SDS011;10589;53.636;10.012;2023-08-06T08:45:28;8.93;;;5.50;;
20857;SDS011;10589;53.636;10.012;2023-08-06T08:47:54;11.90;;;5.43;;
20857;SDS011;10589;53.636;10.012;2023-08-06T08:50:20;6.55;;;5.78;;
20857;SDS011;10589;53.636;10.012;2023-08-06T08:52:46;7.78;;;5.45;;
20857;SDS011;10589;53.636;10.012;2023-08-06T08:55:15;7.63;;;5.50;;
20857;SDS011;10589;53.636;10.012;2023-08-06T08:57:41;8.50;;;5.60;;
20857;SDS011;10589;53.636;10.012;2023-08-06T09:00:07;9.30;;;5.78;;
20857;SDS011;10589;53.636;10.012;2023-08-06T09:02:33;5.35;;;4.72;;
20857;SDS011;10589;53.636;10.012;2023-08-06T09:05:02;8.88;;;5.65;;
20857;SDS011;10589;53.636;10.012;2023-08-06T09:07:41;8.13;;;5.68;;
20857;SDS011;10589;53.636;10.012;2023-08-06T09:10:11;9.02;;;5.95;;
20857;SDS011;10589;53.636;10.012;2023-08-06T09:12:38;8.32;;;6.10;;
20857;SDS011;10589;53.636;10.012;2023-08-06T09:15:04;10.43;;;6.68;;
20857;SDS011;10589;53.636;10.012;2023-08-06T09:17:30;11.13;;;6.50;;
20857;SDS011;10589;53.636;10.012;2023-08-06T09:19:56;8.38;;;6.88;;
20857;SDS011;10589;53.636;10.012;2023-08-06T09:22:22;9.90;;;6.70;;
20857;SDS011;10589;53.636;10.012;2023-08-06T09:24:48;8.05;;;6.45;;
20857;SDS011;10589;53.636;10.012;2023-08-06T09:27:14;10.95;;;6.50;;
20857;SDS011;10589;53.636;10.012;2023-08-06T09:29:43;7.60;;;6.47;;
20857;SDS011;10589;53.636;10.012;2023-08-06T09:32:11;9.60;;;6.65;;
20857;SDS011;10589;53.636;10.012;2023-08-06T09:34:41;10.23;;;6.78;;
20857;SDS011;10589;53.636;10.012;2023-08-06T09:37:11;12.30;;;7.68;;
20857;SDS011;10589;53.636;10.012;2023-08-06T09:39:38;10.85;;;7.22;;
20857;SDS011;10589;53.636;10.012;2023-08-06T09:42:06;8.93;;;7.35;;
20857;SDS011;10589;53.636;10.012;2023-08-06T09:44:32;10.43;;;6.97;;
20857;SDS011;10589;53.636;10.012;2023-08-06T09:46:59;8.73;;;7.55;;
20857;SDS011;10589;53.636;10.012;2023-08-06T09:49:29;9.63;;;7.43;;
20857;SDS011;10589;53.636;10.012;2023-08-06T09:52:10;12.35;;;7.65;;
20857;SDS011;10589;53.636;10.012;2023-08-06T09:54:40;11.35;;;8.45;;
20857;SDS011;10589;53.636;10.012;2023-08-06T09:57:08;9.90;;;8.93;;
20857;SDS011;10589;53.636;10.012;2023-08-06T09:59:34;8.77;;;7.78;;
20857;SDS011;10589;53.636;10.012;2023-08-06T10:02:02;12.38;;;8.98;;
20857;SDS011;10589;53.636;10.012;2023-08-06T10:04:31;12.47;;;9.33;;
20857;SDS011;10589;53.636;10.012;2023-08-06T10:06:57;11.80;;;10.23;;
20857;SDS011;10589;53.636;10.012;2023-08-06T10:09:24;12.68;;;10.15;;
20857;SDS011;10589;53.636;10.012;2023-08-06T10:11:50;11.07;;;9.57;;
20857;SDS011;10589;53.636;10.012;2023-08-06T10:17:00;13.03;;;10.50;;
20857;SDS011;10589;53.636;10.012;2023-08-06T10:19:26;15.57;;;11.32;;
20857;SDS011;10589;53.636;10.012;2023-08-06T10:22:09;17.37;;;11.83;;
20857;SDS011;10589;53.636;10.012;2023-08-06T10:27:14;13.95;;;10.88;;
20857;SDS011;10589;53.636;10.012;2023-08-06T10:29:45;12.27;;;10.93;;
20857;SDS011;10589;53.636;10.012;2023-08-06T10:32:11;12.83;;;10.90;;
20857;SDS011;10589;53.636;10.012;2023-08-06T10:37:22;10.95;;;9.88;;
20857;SDS011;10589;53.636;10.012;2023-08-06T10:39:49;12.30;;;10.32;;
20857;SDS011;10589;53.636;10.012;2023-08-06T10:42:22;11.57;;;9.80;;
20857;SDS011;10589;53.636;10.012;2023-08-06T10:45:12;12.30;;;9.45;;
20857;SDS011;10589;53.636;10.012;2023-08-06T10:47:42;13.95;;;10.13;;
20857;SDS011;10589;53.636;10.012;2023-08-06T10:50:10;15.30;;;10.30;;
20857;SDS011;10589;53.636;10.012;2023-08-06T10:52:37;11.73;;;9.60;;
20857;SDS011;10589;53.636;10.012;2023-08-06T10:55:03;14.73;;;10.38;;
20857;SDS011;10589;53.636;10.012;2023-08-06T10:57:29;13.02;;;9.82;;
20857;SDS011;10589;53.636;10.012;2023-08-06T10:59:55;13.18;;;10.50;;
20857;SDS011;10589;53.636;10.012;2023-08-06T11:02:20;12.32;;;11.02;;
20857;SDS011;10589;53.636;10.012;2023-08-06T11:04:46;14.82;;;10.90;;
20857;SDS011;10589;53.636;10.012;2023-08-06T11:07:13;13.23;;;9.93;;
20857;SDS011;10589;53.636;10.012;2023-08-06T11:09:39;11.13;;;9.15;;
20857;SDS011;10589;53.636;10.012;2023-08-06T11:12:10;9.23;;;8.25;;
20857;SDS011;10589;53.636;10.012;2023-08-06T11:14:36;12.90;;;8.10;;
20857;SDS011;10589;53.636;10.012;2023-08-06T11:17:03;9.15;;;8.15;;
20857;SDS011;10589;53.636;10.012;2023-08-06T11:19:30;11.25;;;8.63;;
20857;SDS011;10589;53.636;10.012;2023-08-06T11:21:55;8.93;;;8.02;;
20857;SDS011;10589;53.636;10.012;2023-08-06T11:24:23;9.88;;;7.95;;
20857;SDS011;10589;53.636;10.012;2023-08-06T11:26:49;10.02;;;8.30;;
20857;SDS011;10589;53.636;10.012;2023-08-06T11:29:15;9.35;;;8.23;;
20857;SDS011;10589;53.636;10.012;2023-08-06T11:31:41;9.48;;;8.57;;
20857;SDS011;10589;53.636;10.012;2023-08-06T11:34:06;9.45;;;8.45;;
20857;SDS011;10589;53.636;10.012;2023-08-06T11:36:36;13.13;;;8.55;;
20857;SDS011;10589;53.636;10.012;2023-08-06T11:39:05;8.50;;;7.47;;
20857;SDS011;10589;53.636;10.012;2023-08-06T11:41:31;9.73;;;8.50;;
20857;SDS011;10589;53.636;10.012;2023-08-06T11:43:58;8.95;;;7.38;;
20857;SDS011;10589;53.636;10.012;2023-08-06T11:46:24;9.35;;;7.93;;
20857;SDS011;10589;53.636;10.012;2023-08-06T11:48:50;8.52;;;7.55;;
20857;SDS011;10589;53.636;10.012;2023-08-06T11:51:26;10.25;;;8.20;;
20857;SDS011;10589;53.636;10.012;2023-08-06T11:53:55;8.13;;;7.35;;
20857;SDS011;10589;53.636;10.012;2023-08-06T11:56:22;7.90;;;6.75;;
20857;SDS011;10589;53.636;10.012;2023-08-06T11:58:48;11.60;;;7.60;;
20857;SDS011;10589;53.636;10.012;2023-08-06T12:01:13;10.65;;;7.97;;
20857;SDS011;10589;53.636;10.012;2023-08-06T12:03:39;10.50;;;7.32;;
20857;SDS011;10589;53.636;10.012;2023-08-06T12:06:05;7.90;;;6.53;;
20857;SDS011;10589;53.636;10.012;2023-08-06T12:08:34;8.77;;;6.55;;
20857;SDS011;10589;53.636;10.012;2023-08-06T12:11:00;7.38;;;5.68;;
20857;SDS011;10589;53.636;10.012;2023-08-06T12:13:26;10.32;;;6.47;;
20857;SDS011;10589;53.636;10.012;2023-08-06T12:15:51;8.50;;;5.60;;
20857;SDS011;10589;53.636;10.012;2023-08-06T12:18:18;7.68;;;6.15;;
20857;SDS011;10589;53.636;10.012;2023-08-06T12:20:44;6.65;;;5.47;;
20857;SDS011;10589;53.636;10.012;2023-08-06T12:23:10;6.18;;;4.65;;
20857;SDS011;10589;53.636;10.012;2023-08-06T12:25:38;5.05;;;4.53;;
20857;SDS011;10589;53.636;10.012;2023-08-06T12:28:04;5.38;;;4.30;;
20857;SDS011;10589;53.636;10.012;2023-08-06T12:30:30;5.70;;;4.97;;
20857;SDS011;10589;53.636;10.012;2023-08-06T12:32:56;5.78;;;3.60;;
20857;SDS011;10589;53.636;10.012;2023-08-06T12:35:22;6.22;;;4.85;;
20857;SDS011;10589;53.636;10.012;2023-08-06T12:37:48;5.95;;;4.80;;
20857;SDS011;10589;53.636;10.012;2023-08-06T12:40:13;9.05;;;4.70;;
20857;SDS011;10589;53.636;10.012;2023-08-06T12:42:39;5.57;;;3.67;;
20857;SDS011;10589;53.636;10.012;2023-08-06T12:45:05;5.55;;;4.00;;
20857;SDS011;10589;53.636;10.012;2023-08-06T12:47:31;6.82;;;3.90;;
20857;SDS011;10589;53.636;10.012;2023-08-06T12:49:56;8.73;;;5.35;;
20857;SDS011;10589;53.636;10.012;2023-08-06T12:52:22;8.68;;;6.32;;
20857;SDS011;10589;53.636;10.012;2023-08-06T12:54:47;6.25;;;4.85;;
20857;SDS011;10589;53.636;10.012;2023-08-06T12:57:14;9.32;;;5.00;;
20857;SDS011;10589;53.636;10.012;2023-08-06T12:59:40;5.28;;;4.20;;
20857;SDS011;10589;53.636;10.012;2023-08-06T13:02:05;7.60;;;5.47;;
20857;SDS011;10589;53.636;10.012;2023-08-06T13:04:32;11.25;;;5.65;;
20857;SDS011;10589;53.636;10.012;2023-08-06T13:06:59;7.35;;;5.32;;
20857;SDS011;10589;53.636;10.012;2023-08-06T13:09:24;8.10;;;5.28;;
20857;SDS011;10589;53.636;10.012;2023-08-06T13:11:51;10.43;;;4.93;;
20857;SDS011;10589;53.636;10.012;2023-08-06T13:14:18;4.78;;;4.07;;
20857;SDS011;10589;53.636;10.012;2023-08-06T13:16:44;5.97;;;3.80;;
20857;SDS011;10589;53.636;10.012;2023-08-06T13:19:10;4.88;;;3.53;;
20857;SDS011;10589;53.636;10.012;2023-08-06T13:24:06;4.03;;;2.83;;
20857;SDS011;10589;53.636;10.012;2023-08-06T13:26:33;6.18;;;4.90;;
20857;SDS011;10589;53.636;10.012;2023-08-06T13:28:58;6.97;;;3.53;;
20857;SDS011;10589;53.636;10.012;2023-08-06T13:31:26;5.07;;;2.45;;
20857;SDS011;10589;53.636;10.012;2023-08-06T13:33:56;5.03;;;2.38;;
20857;SDS011;10589;53.636;10.012;2023-08-06T13:36:28;3.33;;;2.20;;
20857;SDS011;10589;53.636;10.012;2023-08-06T13:38:54;4.57;;;2.28;;
20857;SDS011;10589;53.636;10.012;2023-08-06T13:41:21;5.30;;;2.40;;
20857;SDS011;10589;53.636;10.012;2023-08-06T13:43:47;7.05;;;2.65;;
20857;SDS011;10589;53.636;10.012;2023-08-06T13:46:12;4.50;;;2.20;;
20857;SDS011;10589;53.636;10.012;2023-08-06T13:48:43;3.53;;;2.50;;
20857;SDS011;10589;53.636;10.012;2023-08-06T13:51:09;5.07;;;2.40;;
20857;SDS011;10589;53.636;10.012;2023-08-06T13:53:36;3.75;;;2.00;;
20857;SDS011;10589;53.636;10.012;2023-08-06T13:56:02;3.47;;;2.40;;
20857;SDS011;10589;53.636;10.012;2023-08-06T13:58:29;4.28;;;2.50;;
20857;SDS011;10589;53.636;10.012;2023-08-06T14:00:55;3.65;;;2.22;;
20857;SDS011;10589;53.636;10.012;2023-08-06T14:03:21;4.43;;;2.38;;
20857;SDS011;10589;53.636;10.012;2023-08-06T14:05:47;5.45;;;2.42;;
20857;SDS011;10589;53.636;10.012;2023-08-06T14:08:13;6.07;;;2.47;;
20857;SDS011;10589;53.636;10.012;2023-08-06T14:10:43;3.17;;;2.20;;
20857;SDS011;10589;53.636;10.012;2023-08-06T14:13:09;4.03;;;2.28;;
20857;SDS011;10589;53.636;10.012;2023-08-06T14:15:34;3.40;;;2.10;;
20857;SDS011;10589;53.636;10.012;2023-08-06T14:18:00;4.07;;;2.17;;
20857;SDS011;10589;53.636;10.012;2023-08-06T14:20:27;3.50;;;1.88;;
20857;SDS011;10589;53.636;10.012;2023-08-06T14:22:52;3.70;;;2.03;;
20857;SDS011;10589;53.636;10.012;2023-08-06T14:25:18;4.65;;;2.05;;
20857;SDS011;10589;53.636;10.012;2023-08-06T14:27:43;3.85;;;2.40;;
20857;SDS011;10589;53.636;10.012;2023-08-06T14:30:09;4.05;;;2.35;;
20857;SDS011;10589;53.636;10.012;2023-08-06T14:32:35;3.22;;;2.15;;
20857;SDS011;10589;53.636;10.012;2023-08-06T14:35:02;5.30;;;2.30;;
20857;SDS011;10589;53.636;10.012;2023-08-06T14:37:27;3.80;;;2.15;;
20857;SDS011;10589;53.636;10.012;2023-08-06T14:39:53;3.53;;;2.33;;
20857;SDS011;10589;53.636;10.012;2023-08-06T14:42:19;4.68;;;2.17;;
20857;SDS011;10589;53.636;10.012;2023-08-06T14:44:45;2.25;;;1.92;;
20857;SDS011;10589;53.636;10.012;2023-08-06T14:47:10;4.45;;;1.90;;
20857;SDS011;10589;53.636;10.012;2023-08-06T14:49:37;3.25;;;1.95;;
20857;SDS011;10589;53.636;10.012;2023-08-06T14:52:03;4.13;;;2.13;;
20857;SDS011;10589;53.636;10.012;2023-08-06T14:54:29;3.42;;;2.20;;
20857;SDS011;10589;53.636;10.012;2023-08-06T14:56:54;2.28;;;1.95;;
20857;SDS011;10589;53.636;10.012;2023-08-06T14:59:20;2.88;;;1.73;;
20857;SDS011;10589;53.636;10.012;2023-08-06T15:01:45;2.95;;;1.63;;
20857;SDS011;10589;53.636;10.012;2023-08-06T15:04:11;6.10;;;1.73;;
20857;SDS011;10589;53.636;10.012;2023-08-06T15:06:36;3.33;;;1.50;;
20857;SDS011;10589;53.636;10.012;2023-08-06T15:09:02;3.85;;;1.80;;
20857;SDS011;10589;53.636;10.012;2023-08-06T15:11:28;3.60;;;1.83;;
20857;SDS011;10589;53.636;10.012;2023-08-06T15:13:53;2.72;;;1.70;;
20857;SDS011;10589;53.636;10.012;2023-08-06T15:16:19;3.45;;;2.10;;
20857;SDS011;10589;53.636;10.012;2023-08-06T15:18:44;2.55;;;1.92;;
20857;SDS011;10589;53.636;10.012;2023-08-06T15:21:10;4.45;;;2.00;;
20857;SDS011;10589;53.636;10.012;2023-08-06T15:23:36;2.35;;;1.50;;
20857;SDS011;10589;53.636;10.012;2023-08-06T15:26:02;3.58;;;1.80;;
20857;SDS011;10589;53.636;10.012;2023-08-06T15:28:27;4.80;;;2.20;;
20857;SDS011;10589;53.636;10.012;2023-08-06T15:30:53;4.25;;;2.38;;
20857;SDS011;10589;53.636;10.012;2023-08-06T15:33:20;4.95;;;1.88;;
20857;SDS011;10589;53.636;10.012;2023-08-06T15:35:46;4.68;;;1.88;;
20857;SDS011;10589;53.636;10.012;2023-08-06T15:38:13;3.65;;;1.90;;
20857;SDS011;10589;53.636;10.012;2023-08-06T15:40:38;4.38;;;2.00;;
20857;SDS011;10589;53.636;10.012;2023-08-06T15:43:04;1.90;;;1.38;;
20857;SDS011;10589;53.636;10.012;2023-08-06T15:45:30;2.75;;;1.88;;
20857;SDS011;10589;53.636;10.012;2023-08-06T15:47:56;3.60;;;1.73;;
20857;SDS011;10589;53.636;10.012;2023-08-06T15:50:22;3.00;;;1.95;;
20857;SDS011;10589;53.636;10.012;2023-08-06T15:52:47;3.42;;;1.90;;
20857;SDS011;10589;53.636;10.012;2023-08-06T15:55:13;3.60;;;2.03;;
20857;SDS011;10589;53.636;10.012;2023-08-06T15:57:39;2.75;;;1.90;;
20857;SDS011;10589;53.636;10.012;2023-08-06T16:00:05;3.83;;;2.20;;
20857;SDS011;10589;53.636;10.012;2023-08-06T16:02:31;4.95;;;2.15;;
20857;SDS011;10589;53.636;10.012;2023-08-06T16:04:58;4.35;;;2.22;;
20857;SDS011;10589;53.636;10.012;2023-08-06T16:07:25;4.90;;;2.00;;
20857;SDS011;10589;53.636;10.012;2023-08-06T16:09:54;2.67;;;2.00;;
20857;SDS011;10589;53.636;10.012;2023-08-06T16:12:21;3.20;;;1.80;;
20857;SDS011;10589;53.636;10.012;2023-08-06T16:14:46;2.85;;;1.88;;
20857;SDS011;10589;53.636;10.012;2023-08-06T16:17:12;3.50;;;2.33;;
20857;SDS011;10589;53.636;10.012;2023-08-06T16:19:38;3.40;;;1.88;;
20857;SDS011;10589;53.636;10.012;2023-08-06T16:22:04;4.22;;;2.35;;
20857;SDS011;10589;53.636;10.012;2023-08-06T16:24:30;2.30;;;1.88;;
20857;SDS011;10589;53.636;10.012;2023-08-06T16:26:57;3.05;;;1.90;;
20857;SDS011;10589;53.636;10.012;2023-08-06T16:29:22;4.82;;;1.98;;
20857;SDS011;10589;53.636;10.012;2023-08-06T16:31:48;3.05;;;2.10;;
20857;SDS011;10589;53.636;10.012;2023-08-06T16:34:13;4.15;;;1.77;;
20857;SDS011;10589;53.636;10.012;2023-08-06T16:36:39;3.40;;;2.05;;
20857;SDS011;10589;53.636;10.012;2023-08-06T16:39:05;3.67;;;2.10;;
20857;SDS011;10589;53.636;10.012;2023-08-06T16:41:32;8.85;;;2.60;;
20857;SDS011;10589;53.636;10.012;2023-08-06T16:43:58;3.45;;;2.20;;
20857;SDS011;10589;53.636;10.012;2023-08-06T16:46:24;5.55;;;2.25;;
20857;SDS011;10589;53.636;10.012;2023-08-06T16:48:49;4.82;;;2.03;;
20857;SDS011;10589;53.636;10.012;2023-08-06T16:51:15;4.03;;;2.40;;
20857;SDS011;10589;53.636;10.012;2023-08-06T16:53:44;3.90;;;2.10;;
20857;SDS011;10589;53.636;10.012;2023-08-06T16:56:10;4.50;;;2.25;;
20857;SDS011;10589;53.636;10.012;2023-08-06T16:58:35;3.92;;;2.28;;
20857;SDS011;10589;53.636;10.012;2023-08-06T17:01:01;3.22;;;2.28;;
20857;SDS011;10589;53.636;10.012;2023-08-06T17:03:30;2.65;;;1.70;;
20857;SDS011;10589;53.636;10.012;2023-08-06T17:05:59;4.00;;;2.20;;
20857;SDS011;10589;53.636;10.012;2023-08-06T17:08:26;6.30;;;2.38;;
20857;SDS011;10589;53.636;10.012;2023-08-06T17:10:55;2.40;;;1.90;;
20857;SDS011;10589;53.636;10.012;2023-08-06T17:13:21;3.63;;;2.20;;
20857;SDS011;10589;53.636;10.012;2023-08-06T17:15:48;4.00;;;2.10;;
20857;SDS011;10589;53.636;10.012;2023-08-06T17:18:13;5.45;;;2.60;;
20857;SDS011;10589;53.636;10.012;2023-08-06T17:20:42;3.60;;;1.98;;
20857;SDS011;10589;53.636;10.012;2023-08-06T17:23:08;5.55;;;2.33;;
20857;SDS011;10589;53.636;10.012;2023-08-06T17:25:34;2.10;;;1.70;;
20857;SDS011;10589;53.636;10.012;2023-08-06T17:28:00;2.17;;;1.70;;
20857;SDS011;10589;53.636;10.012;2023-08-06T17:30:28;3.63;;;2.03;;
20857;SDS011;10589;53.636;10.012;2023-08-06T17:32:54;4.07;;;1.92;;
20857;SDS011;10589;53.636;10.012;2023-08-06T17:35:19;3.15;;;1.85;;
20857;SDS011;10589;53.636;10.012;2023-08-06T17:37:46;2.63;;;2.28;;
20857;SDS011;10589;53.636;10.012;2023-08-06T17:40:12;4.25;;;2.00;;
20857;SDS011;10589;53.636;10.012;2023-08-06T17:42:37;2.40;;;1.85;;
20857;SDS011;10589;53.636;10.012;2023-08-06T17:45:03;2.85;;;2.00;;
20857;SDS011;10589;53.636;10.012;2023-08-06T17:47:29;3.95;;;2.15;;
20857;SDS011;10589;53.636;10.012;2023-08-06T17:49:55;3.78;;;2.42;;
20857;SDS011;10589;53.636;10.012;2023-08-06T17:52:21;3.55;;;1.95;;
20857;SDS011;10589;53.636;10.012;2023-08-06T17:54:47;3.55;;;2.30;;
20857;SDS011;10589;53.636;10.012;2023-08-06T17:57:12;3.55;;;1.90;;
20857;SDS011;10589;53.636;10.012;2023-08-06T17:59:38;3.50;;;2.10;;
20857;SDS011;10589;53.636;10.012;2023-08-06T18:02:04;4.95;;;1.98;;
20857;SDS011;10589;53.636;10.012;2023-08-06T18:04:30;3.65;;;2.08;;
20857;SDS011;10589;53.636;10.012;2023-08-06T18:06:57;3.45;;;2.03;;
20857;SDS011;10589;53.636;10.012;2023-08-06T18:09:22;3.78;;;2.10;;
20857;SDS011;10589;53.636;10.012;2023-08-06T18:11:48;2.92;;;2.00;;
20857;SDS011;10589;53.636;10.012;2023-08-06T18:14:13;5.53;;;2.63;;
20857;SDS011;10589;53.636;10.012;2023-08-06T18:16:39;4.43;;;2.35;;
20857;SDS011;10589;53.636;10.012;2023-08-06T18:19:04;4.10;;;2.22;;
20857;SDS011;10589;53.636;10.012;2023-08-06T18:21:30;2.70;;;2.20;;